Time;durP1;ratioP1;P1;durP2;ratioP2;P2;SDS_P1;SDS_P2;PMS_P1;PMS_P2;Temp;Humidity;BMP_temperature;BMP_pressure;BME280_temperature;BME280_humidity;BME280_pressure;Samples;Min_cycle;Max_cycle;Signal;HPM_P1;HPM_P2
2023/12/07 00:02:25;;;;;;;5.68;1.38;;;;;;;;;;5066198;28;20887;-48
2023/12/07 00:04:52;;;;;;;5.60;1.40;;;;;;;;;;5067634;28;20857;-53
2023/12/07 00:07:19;;;;;;;7.15;1.40;;;;;;;;;;5064994;28;20420;-53
2023/12/07 00:09:46;;;;;;;4.78;1.50;;;;;;;;;;5051697;28;20958;-49
2023/12/07 00:12:13;;;;;;;9.77;1.60;;;;;;;;;;5073704;28;20394;-50
2023/12/07 00:14:40;;;;;;;8.88;1.70;;;;;;;;;;5066855;28;21240;-47
2023/12/07 00:17:07;;;;;;;20.20;2.70;;;;;;;;;;5070213;28;20436;-50
2023/12/07 00:19:34;;;;;;;17.80;2.80;;;;;;;;;;5061422;28;20443;-46
2023/12/07 00:22:01;;;;;;;18.25;3.38;;;;;;;;;;5055951;28;20448;-51
2023/12/07 00:24:29;;;;;;;11.07;2.63;;;;;;;;;;5069366;28;20405;-47
2023/12/07 00:26:56;;;;;;;18.42;3.20;;;;;;;;;;5066507;28;20424;-46
2023/12/07 00:29:23;;;;;;;15.70;3.20;;;;;;;;;;5068980;28;20488;-47
2023/12/07 00:31:51;;;;;;;17.20;3.50;;;;;;;;;;5070137;28;20419;-47
2023/12/07 00:34:18;;;;;;;12.30;3.00;;;;;;;;;;5073953;28;20409;-46
2023/12/07 00:36:45;;;;;;;14.18;2.90;;;;;;;;;;5074489;28;20424;-46
2023/12/07 00:39:12;;;;;;;13.07;3.20;;;;;;;;;;5056923;28;20791;-47
2023/12/07 00:41:39;;;;;;;13.43;2.80;;;;;;;;;;5062908;28;20451;-46
2023/12/07 00:44:06;;;;;;;10.25;2.97;;;;;;;;;;5057190;28;20405;-47
2023/12/07 00:46:33;;;;;;;13.40;3.25;;;;;;;;;;5059746;28;20509;-46
2023/12/07 00:49:00;;;;;;;17.08;3.40;;;;;;;;;;5056238;28;20405;-46
2023/12/07 00:51:27;;;;;;;12.93;3.22;;;;;;;;;;5059742;28;20417;-50
2023/12/07 00:53:54;;;;;;;10.57;3.20;;;;;;;;;;5059039;28;20409;-46
2023/12/07 00:56:21;;;;;;;11.40;3.20;;;;;;;;;;5070319;28;20485;-47
2023/12/07 00:58:48;;;;;;;13.32;3.30;;;;;;;;;;5090433;28;20422;-46
2023/12/07 01:01:15;;;;;;;10.93;3.30;;;;;;;;;;5091073;28;20883;-48
2023/12/07 01:03:42;;;;;;;11.45;3.30;;;;;;;;;;5089414;28;20425;-45
2023/12/07 01:06:11;;;;;;;12.67;3.70;;;;;;;;;;5077396;28;20472;-47
2023/12/07 01:08:38;;;;;;;13.48;3.80;;;;;;;;;;5063237;28;20455;-46
2023/12/07 01:11:06;;;;;;;13.90;3.97;;;;;;;;;;5065477;28;20788;-47
2023/12/07 01:13:33;;;;;;;13.43;3.90;;;;;;;;;;5076883;28;20488;-47
2023/12/07 01:16:00;;;;;;;11.50;4.30;;;;;;;;;;5082786;28;20504;-47
2023/12/07 01:18:27;;;;;;;10.45;4.38;;;;;;;;;;5086722;28;20393;-47
2023/12/07 01:20:54;;;;;;;11.23;4.87;;;;;;;;;;5072594;28;20417;-45
2023/12/07 01:23:21;;;;;;;10.40;4.60;;;;;;;;;;5057503;28;20912;-52
2023/12/07 01:25:48;;;;;;;9.65;4.80;;;;;;;;;;5056408;28;20801;-51
2023/12/07 01:28:15;;;;;;;13.63;5.50;;;;;;;;;;5072370;28;20409;-48
2023/12/07 01:30:42;;;;;;;11.60;5.32;;;;;;;;;;5065427;28;20407;-48
2023/12/07 01:33:09;;;;;;;14.00;5.25;;;;;;;;;;5077018;28;20397;-49
2023/12/07 01:35:36;;;;;;;18.40;5.70;;;;;;;;;;5072600;28;20506;-52
2023/12/07 01:38:04;;;;;;;11.27;4.97;;;;;;;;;;5063580;28;20405;-53
2023/12/07 01:40:31;;;;;;;13.80;5.50;;;;;;;;;;5075280;28;20400;-47
2023/12/07 01:42:58;;;;;;;13.57;5.20;;;;;;;;;;5072557;28;20482;-48
2023/12/07 01:45:25;;;;;;;16.20;5.00;;;;;;;;;;5055154;28;20410;-49
2023/12/07 01:47:53;;;;;;;12.93;4.63;;;;;;;;;;5071702;28;20482;-52
2023/12/07 01:50:23;;;;;;;10.00;4.40;;;;;;;;;;5069256;28;20417;-57
2023/12/07 01:52:52;;;;;;;17.27;5.70;;;;;;;;;;5067432;28;20768;-54
2023/12/07 01:55:20;;;;;;;13.27;5.15;;;;;;;;;;5081921;28;20423;-52
2023/12/07 01:57:49;;;;;;;11.77;5.00;;;;;;;;;;5080896;28;20398;-47
2023/12/07 02:00:16;;;;;;;16.10;5.43;;;;;;;;;;5089111;28;20397;-54
2023/12/07 02:02:45;;;;;;;13.70;5.00;;;;;;;;;;5089578;28;20402;-55
2023/12/07 02:05:14;;;;;;;12.57;4.88;;;;;;;;;;5084715;28;20408;-57
2023/12/07 02:07:44;;;;;;;11.45;4.70;;;;;;;;;;5053920;28;20407;-50
2023/12/07 02:10:14;;;;;;;11.32;4.85;;;;;;;;;;5072554;28;20889;-53
2023/12/07 02:12:41;;;;;;;11.15;4.10;;;;;;;;;;5071144;28;20391;-51
2023/12/07 02:15:08;;;;;;;10.70;4.45;;;;;;;;;;5069617;28;20419;-54
2023/12/07 02:17:44;;;;;;;8.80;3.90;;;;;;;;;;5070876;28;20895;-58
2023/12/07 02:20:14;;;;;;;10.93;4.10;;;;;;;;;;5056717;28;20403;-47
2023/12/07 02:22:48;;;;;;;8.05;3.42;;;;;;;;;;5055575;28;20808;-49
2023/12/07 02:25:16;;;;;;;9.20;4.28;;;;;;;;;;5051680;28;20481;-56
2023/12/07 02:27:45;;;;;;;8.73;4.07;;;;;;;;;;5069467;28;20423;-59
2023/12/07 02:30:13;;;;;;;10.00;3.93;;;;;;;;;;5068360;28;20400;-50
2023/12/07 02:32:41;;;;;;;12.30;4.10;;;;;;;;;;5050732;28;20410;-59
2023/12/07 02:35:09;;;;;;;8.07;3.63;;;;;;;;;;5067659;28;20530;-55
2023/12/07 02:37:52;;;;;;;9.27;3.60;;;;;;;;;;5069219;28;20435;-55
2023/12/07 02:40:20;;;;;;;9.02;3.90;;;;;;;;;;5069166;28;20395;-50
2023/12/07 02:42:48;;;;;;;10.10;3.70;;;;;;;;;;5069569;28;20485;-56
2023/12/07 02:45:16;;;;;;;9.27;3.83;;;;;;;;;;5064947;28;20399;-51
2023/12/07 02:47:45;;;;;;;7.10;3.63;;;;;;;;;;5068116;28;20392;-52
2023/12/07 02:50:13;;;;;;;8.90;3.80;;;;;;;;;;5069223;28;20409;-49
2023/12/07 02:52:40;;;;;;;7.90;3.47;;;;;;;;;;5068879;28;20404;-50
2023/12/07 02:55:08;;;;;;;7.95;3.60;;;;;;;;;;5068973;28;20415;-51
2023/12/07 02:57:35;;;;;;;6.45;3.28;;;;;;;;;;5050917;28;20399;-48
2023/12/07 03:00:07;;;;;;;9.40;3.53;;;;;;;;;;5069273;28;20392;-57
2023/12/07 03:02:37;;;;;;;7.38;3.08;;;;;;;;;;5066225;28;20877;-49
2023/12/07 03:05:05;;;;;;;8.57;3.38;;;;;;;;;;5069502;28;20399;-46
2023/12/07 03:07:32;;;;;;;7.03;3.13;;;;;;;;;;5069845;28;20392;-49
2023/12/07 03:09:59;;;;;;;5.63;3.10;;;;;;;;;;5069640;28;20558;-47
2023/12/07 03:12:26;;;;;;;6.70;3.05;;;;;;;;;;5071967;28;20387;-53
2023/12/07 03:14:53;;;;;;;7.13;2.92;;;;;;;;;;5073297;28;20442;-50
2023/12/07 03:17:20;;;;;;;5.47;2.80;;;;;;;;;;5073460;28;20387;-51
2023/12/07 03:19:47;;;;;;;5.53;2.77;;;;;;;;;;5073321;28;20792;-48
2023/12/07 03:22:15;;;;;;;7.70;3.10;;;;;;;;;;5073387;28;20388;-51
2023/12/07 03:24:46;;;;;;;8.18;3.00;;;;;;;;;;5073252;28;20741;-55
2023/12/07 03:27:13;;;;;;;7.43;3.33;;;;;;;;;;5073033;28;20754;-51
2023/12/07 03:29:40;;;;;;;5.72;3.15;;;;;;;;;;5073092;28;20384;-56
2023/12/07 03:32:08;;;;;;;7.20;2.80;;;;;;;;;;5073272;28;20415;-52
2023/12/07 03:34:35;;;;;;;5.45;2.60;;;;;;;;;;5072693;28;20463;-53
2023/12/07 03:37:03;;;;;;;6.78;2.80;;;;;;;;;;5073069;28;20384;-52
2023/12/07 03:39:32;;;;;;;5.77;2.93;;;;;;;;;;5073109;28;20371;-50
2023/12/07 03:41:59;;;;;;;6.10;2.75;;;;;;;;;;5072881;28;20380;-53
2023/12/07 03:44:30;;;;;;;5.30;2.65;;;;;;;;;;5072804;28;20394;-52
2023/12/07 03:46:57;;;;;;;6.82;2.67;;;;;;;;;;5072653;28;20941;-51
2023/12/07 03:49:24;;;;;;;5.03;2.58;;;;;;;;;;5072910;28;20383;-51
2023/12/07 03:51:51;;;;;;;6.07;2.70;;;;;;;;;;5072833;28;20384;-54
2023/12/07 03:54:18;;;;;;;8.30;2.85;;;;;;;;;;5072126;28;20400;-50
2023/12/07 03:56:46;;;;;;;4.32;2.30;;;;;;;;;;5072275;28;20407;-53
2023/12/07 03:59:13;;;;;;;7.18;2.50;;;;;;;;;;5071828;28;20391;-49
2023/12/07 04:01:40;;;;;;;5.25;2.42;;;;;;;;;;5072651;28;20384;-51
2023/12/07 04:04:07;;;;;;;4.90;2.40;;;;;;;;;;5072656;28;20423;-51
2023/12/07 04:06:34;;;;;;;4.35;2.10;;;;;;;;;;5072164;28;20388;-52
2023/12/07 04:09:01;;;;;;;6.05;2.60;;;;;;;;;;5072422;28;20412;-48
2023/12/07 04:11:28;;;;;;;4.10;2.22;;;;;;;;;;5072473;28;20387;-48
2023/12/07 04:13:55;;;;;;;6.07;2.37;;;;;;;;;;5072497;28;20379;-49
2023/12/07 04:16:22;;;;;;;4.38;2.25;;;;;;;;;;5072349;28;20408;-50
2023/12/07 04:18:49;;;;;;;6.32;2.42;;;;;;;;;;5072502;28;20415;-48
2023/12/07 04:21:16;;;;;;;5.45;2.40;;;;;;;;;;5054406;28;20372;-50
2023/12/07 04:23:43;;;;;;;6.43;2.15;;;;;;;;;;5072070;28;20459;-49
2023/12/07 04:26:10;;;;;;;3.50;1.83;;;;;;;;;;5072267;28;20384;-48
2023/12/07 04:28:37;;;;;;;4.32;1.90;;;;;;;;;;5072112;28;20473;-52
2023/12/07 04:31:04;;;;;;;5.77;2.07;;;;;;;;;;5072116;28;20419;-48
2023/12/07 04:33:31;;;;;;;5.68;2.10;;;;;;;;;;5072174;28;20471;-49
2023/12/07 04:35:58;;;;;;;4.65;2.13;;;;;;;;;;5071918;28;20415;-48
2023/12/07 04:38:25;;;;;;;4.25;2.00;;;;;;;;;;5072101;28;20388;-52
2023/12/07 04:40:53;;;;;;;4.13;1.98;;;;;;;;;;5072081;28;20462;-50
2023/12/07 04:43:20;;;;;;;4.63;1.90;;;;;;;;;;5071889;28;20423;-48
2023/12/07 04:45:47;;;;;;;4.10;1.92;;;;;;;;;;5071760;28;20379;-48
2023/12/07 04:48:14;;;;;;;3.28;1.90;;;;;;;;;;5071884;28;20388;-49
2023/12/07 04:50:41;;;;;;;4.13;1.87;;;;;;;;;;5071910;28;20906;-48
2023/12/07 04:53:08;;;;;;;3.45;2.00;;;;;;;;;;5071841;28;20379;-49
2023/12/07 04:55:35;;;;;;;4.20;2.00;;;;;;;;;;5071532;28;20399;-48
2023/12/07 04:58:02;;;;;;;4.45;1.90;;;;;;;;;;5071769;28;20396;-53
2023/12/07 05:00:29;;;;;;;4.07;1.92;;;;;;;;;;5071676;28;20901;-48
2023/12/07 05:02:56;;;;;;;3.08;1.65;;;;;;;;;;5071630;28;20379;-50
2023/12/07 05:05:24;;;;;;;3.73;1.90;;;;;;;;;;5071455;28;20392;-51
2023/12/07 05:07:51;;;;;;;4.03;1.75;;;;;;;;;;5071405;28;20387;-48
2023/12/07 05:10:18;;;;;;;4.15;1.90;;;;;;;;;;5071512;28;20376;-51
2023/12/07 05:12:45;;;;;;;2.60;1.70;;;;;;;;;;5071324;28;20434;-47
2023/12/07 05:15:13;;;;;;;4.27;1.80;;;;;;;;;;5071217;28;20411;-47
2023/12/07 05:17:40;;;;;;;4.77;2.00;;;;;;;;;;5071245;28;20933;-48
2023/12/07 05:20:07;;;;;;;2.63;1.80;;;;;;;;;;5071246;28;20428;-50
2023/12/07 05:22:34;;;;;;;5.50;2.15;;;;;;;;;;5071198;28;20387;-50
2023/12/07 05:25:01;;;;;;;5.93;2.05;;;;;;;;;;5071014;28;20406;-49
2023/12/07 05:27:28;;;;;;;3.45;1.98;;;;;;;;;;5070913;28;20411;-49
2023/12/07 05:29:55;;;;;;;3.17;1.70;;;;;;;;;;5071081;28;20396;-48
2023/12/07 05:32:22;;;;;;;4.47;1.88;;;;;;;;;;5071149;28;20383;-48
2023/12/07 05:34:50;;;;;;;4.07;1.80;;;;;;;;;;5070307;28;20407;-48
2023/12/07 05:37:17;;;;;;;4.28;1.90;;;;;;;;;;5070804;28;20388;-50
2023/12/07 05:39:44;;;;;;;4.35;1.85;;;;;;;;;;5070936;28;20877;-49
2023/12/07 05:42:11;;;;;;;4.43;1.88;;;;;;;;;;5070821;28;20387;-47
2023/12/07 05:44:38;;;;;;;4.78;2.08;;;;;;;;;;5070593;28;20892;-48
2023/12/07 05:47:05;;;;;;;3.65;2.00;;;;;;;;;;5070766;28;20471;-50
2023/12/07 05:49:32;;;;;;;4.30;1.90;;;;;;;;;;5070745;28;20375;-48
2023/12/07 05:51:59;;;;;;;5.00;1.92;;;;;;;;;;5070648;28;21098;-48
2023/12/07 05:54:26;;;;;;;4.47;1.83;;;;;;;;;;5070402;28;20379;-49
2023/12/07 05:56:53;;;;;;;3.85;2.00;;;;;;;;;;5070621;28;20770;-48
2023/12/07 05:59:20;;;;;;;4.68;2.20;;;;;;;;;;5070731;28;20926;-50
2023/12/07 06:01:47;;;;;;;3.28;2.00;;;;;;;;;;5069053;28;20408;-49
2023/12/07 06:04:15;;;;;;;4.28;1.88;;;;;;;;;;5070445;28;20902;-48
2023/12/07 06:06:42;;;;;;;4.68;2.00;;;;;;;;;;5070482;28;20411;-47
2023/12/07 06:09:10;;;;;;;4.25;2.00;;;;;;;;;;5070564;28;20489;-47
2023/12/07 06:11:37;;;;;;;3.90;1.88;;;;;;;;;;5070454;28;20491;-48
2023/12/07 06:14:06;;;;;;;5.00;2.15;;;;;;;;;;5070492;28;20376;-47
2023/12/07 06:16:33;;;;;;;4.78;1.90;;;;;;;;;;5070124;28;20434;-48
2023/12/07 06:18:59;;;;;;;2.83;1.75;;;;;;;;;;5070368;28;20434;-47
2023/12/07 06:21:29;;;;;;;3.00;1.77;;;;;;;;;;5070446;28;20375;-47
2023/12/07 06:23:56;;;;;;;3.38;2.00;;;;;;;;;;5070480;28;20396;-47
2023/12/07 06:26:24;;;;;;;3.57;1.90;;;;;;;;;;5070178;28;20891;-47
2023/12/07 06:28:51;;;;;;;4.35;1.73;;;;;;;;;;5070291;28;20924;-50
2023/12/07 06:31:21;;;;;;;4.97;2.23;;;;;;;;;;5070254;28;20376;-47
2023/12/07 06:33:48;;;;;;;3.85;1.92;;;;;;;;;;5070150;28;20512;-47
2023/12/07 06:36:20;;;;;;;3.38;1.80;;;;;;;;;;5069838;28;20486;-47
2023/12/07 06:38:47;;;;;;;4.88;2.00;;;;;;;;;;5070092;28;20392;-47
2023/12/07 06:41:18;;;;;;;4.00;1.90;;;;;;;;;;5070101;28;20372;-48
2023/12/07 06:43:45;;;;;;;3.40;1.90;;;;;;;;;;5070125;28;20388;-46
2023/12/07 06:46:13;;;;;;;3.97;1.80;;;;;;;;;;5070373;28;20388;-47
2023/12/07 06:48:41;;;;;;;4.10;2.00;;;;;;;;;;5074199;28;20952;-47
2023/12/07 06:51:07;;;;;;;4.43;1.83;;;;;;;;;;5074126;28;20382;-49
2023/12/07 06:53:34;;;;;;;3.50;1.70;;;;;;;;;;5074137;28;20451;-47
2023/12/07 06:56:01;;;;;;;4.00;1.90;;;;;;;;;;5073873;28;20773;-47
2023/12/07 06:58:28;;;;;;;4.43;1.95;;;;;;;;;;5073971;28;20454;-48
2023/12/07 07:00:55;;;;;;;3.97;1.70;;;;;;;;;;5074054;28;20380;-47
2023/12/07 07:03:22;;;;;;;3.92;1.85;;;;;;;;;;5073989;28;20789;-47
2023/12/07 07:05:49;;;;;;;3.33;1.88;;;;;;;;;;5073942;28;20409;-47
2023/12/07 07:08:16;;;;;;;4.43;1.75;;;;;;;;;;5073798;28;20434;-48
2023/12/07 07:10:46;;;;;;;4.32;1.90;;;;;;;;;;5073789;28;20375;-48
2023/12/07 07:13:15;;;;;;;3.38;1.83;;;;;;;;;;5073608;28;20388;-47
2023/12/07 07:15:45;;;;;;;4.15;1.70;;;;;;;;;;5073498;28;20418;-50
2023/12/07 07:18:13;;;;;;;3.38;1.63;;;;;;;;;;5073630;28;20482;-48
2023/12/07 07:20:40;;;;;;;4.00;1.90;;;;;;;;;;5073632;28;20997;-48
2023/12/07 07:23:08;;;;;;;4.75;1.90;;;;;;;;;;5073570;28;20383;-48
2023/12/07 07:25:35;;;;;;;4.10;1.80;;;;;;;;;;5073348;28;20433;-47
2023/12/07 07:28:03;;;;;;;4.85;1.77;;;;;;;;;;5073346;28;20469;-47
2023/12/07 07:30:30;;;;;;;3.40;1.58;;;;;;;;;;5073377;28;20407;-50
2023/12/07 07:32:57;;;;;;;3.55;1.80;;;;;;;;;;5073504;28;20383;-47
2023/12/07 07:35:24;;;;;;;3.47;1.85;;;;;;;;;;5073221;28;20404;-48
2023/12/07 07:37:51;;;;;;;3.90;1.70;;;;;;;;;;5073323;28;20392;-47
2023/12/07 07:40:18;;;;;;;3.85;1.80;;;;;;;;;;5073288;28;20380;-47
2023/12/07 07:42:45;;;;;;;4.63;1.70;;;;;;;;;;5073221;28;20896;-49
2023/12/07 07:45:12;;;;;;;2.95;1.60;;;;;;;;;;5073053;28;20403;-47
2023/12/07 07:47:39;;;;;;;3.67;1.60;;;;;;;;;;5055183;28;20730;-47
2023/12/07 07:50:07;;;;;;;3.42;1.60;;;;;;;;;;5073217;28;20480;-47
2023/12/07 07:52:35;;;;;;;2.97;1.50;;;;;;;;;;5073061;28;20412;-48
2023/12/07 07:55:03;;;;;;;3.50;1.80;;;;;;;;;;5072746;28;20408;-49
2023/12/07 07:57:30;;;;;;;3.45;1.70;;;;;;;;;;5072437;28;20388;-48
2023/12/07 07:59:57;;;;;;;4.50;1.42;;;;;;;;;;5073012;28;20413;-50
2023/12/07 08:02:25;;;;;;;4.97;1.77;;;;;;;;;;5072967;28;20419;-48
2023/12/07 08:04:52;;;;;;;5.03;1.67;;;;;;;;;;5072750;28;20383;-46
2023/12/07 08:07:19;;;;;;;3.40;1.60;;;;;;;;;;5072720;28;20392;-48
2023/12/07 08:09:45;;;;;;;4.55;1.80;;;;;;;;;;5073036;28;20806;-48
2023/12/07 08:12:12;;;;;;;3.10;1.77;;;;;;;;;;5072825;28;20803;-48
2023/12/07 08:14:42;;;;;;;4.75;1.75;;;;;;;;;;5072532;28;20380;-46
2023/12/07 08:17:09;;;;;;;3.85;1.70;;;;;;;;;;5072687;28;20403;-47
2023/12/07 08:19:36;;;;;;;3.13;1.80;;;;;;;;;;5072597;28;20438;-47
2023/12/07 08:22:03;;;;;;;3.65;1.67;;;;;;;;;;5072429;28;20891;-49
2023/12/07 08:24:30;;;;;;;4.77;1.90;;;;;;;;;;5072436;28;20464;-47
2023/12/07 08:26:57;;;;;;;2.83;1.70;;;;;;;;;;5072283;28;20410;-47
2023/12/07 08:29:24;;;;;;;3.55;1.52;;;;;;;;;;5072434;28;20387;-49
2023/12/07 08:31:51;;;;;;;2.70;1.60;;;;;;;;;;5054318;28;20482;-47
2023/12/07 08:34:18;;;;;;;3.65;1.70;;;;;;;;;;5072227;28;20379;-47
2023/12/07 08:36:45;;;;;;;3.63;1.60;;;;;;;;;;5072143;28;20395;-47
2023/12/07 08:39:12;;;;;;;3.53;1.70;;;;;;;;;;5072261;28;20416;-49
2023/12/07 08:41:39;;;;;;;4.45;1.73;;;;;;;;;;5072194;28;20380;-49
2023/12/07 08:44:06;;;;;;;2.63;1.40;;;;;;;;;;5071850;28;20388;-51
2023/12/07 08:46:33;;;;;;;3.73;1.67;;;;;;;;;;5071962;28;20784;-46
2023/12/07 08:49:00;;;;;;;3.10;1.73;;;;;;;;;;5072079;28;20398;-49
2023/12/07 08:51:27;;;;;;;3.42;1.60;;;;;;;;;;5054009;28;20392;-50
2023/12/07 08:53:54;;;;;;;2.80;1.35;;;;;;;;;;5071809;28;20948;-47
2023/12/07 08:56:21;;;;;;;3.60;1.60;;;;;;;;;;5071619;28;20404;-48
2023/12/07 08:58:48;;;;;;;4.00;1.70;;;;;;;;;;5071869;28;20995;-47
2023/12/07 09:01:15;;;;;;;3.70;1.70;;;;;;;;;;5071785;28;20463;-47
2023/12/07 09:03:42;;;;;;;3.70;1.57;;;;;;;;;;5071762;28;20865;-48
2023/12/07 09:06:09;;;;;;;5.25;1.90;;;;;;;;;;5071552;28;20386;-49
2023/12/07 09:08:36;;;;;;;3.72;1.63;;;;;;;;;;5071283;28;20450;-48
2023/12/07 09:11:04;;;;;;;3.50;1.90;;;;;;;;;;5071219;28;20383;-47
2023/12/07 09:13:31;;;;;;;7.18;1.80;;;;;;;;;;5071603;28;21068;-48
2023/12/07 09:15:58;;;;;;;3.17;1.60;;;;;;;;;;5071523;28;20752;-48
2023/12/07 09:18:25;;;;;;;3.40;1.58;;;;;;;;;;5071365;28;20454;-47
2023/12/07 09:20:52;;;;;;;2.92;1.52;;;;;;;;;;5071282;28;20958;-47
2023/12/07 09:23:19;;;;;;;4.22;1.90;;;;;;;;;;5071279;28;20380;-47
2023/12/07 09:25:46;;;;;;;3.58;1.70;;;;;;;;;;5071207;28;20437;-47
2023/12/07 09:28:14;;;;;;;3.72;1.70;;;;;;;;;;5070937;28;21075;-47
2023/12/07 09:30:40;;;;;;;4.43;2.00;;;;;;;;;;5071117;28;20819;-47
2023/12/07 09:33:07;;;;;;;4.45;2.30;;;;;;;;;;5071033;28;20423;-47
2023/12/07 09:35:35;;;;;;;5.75;2.10;;;;;;;;;;5070938;28;20892;-47
2023/12/07 09:38:02;;;;;;;4.50;2.50;;;;;;;;;;5071057;28;20460;-46
2023/12/07 09:40:30;;;;;;;4.28;2.30;;;;;;;;;;5070929;28;20481;-47
2023/12/07 09:42:57;;;;;;;5.35;2.50;;;;;;;;;;5070921;28;20411;-47
2023/12/07 09:45:24;;;;;;;5.35;2.90;;;;;;;;;;5070876;28;20371;-47
2023/12/07 09:47:52;;;;;;;5.83;2.90;;;;;;;;;;5070800;28;20757;-47
2023/12/07 09:50:23;;;;;;;6.50;2.70;;;;;;;;;;5052918;28;20765;-47
2023/12/07 09:52:56;;;;;;;6.00;3.03;;;;;;;;;;5070641;28;20884;-48
2023/12/07 09:55:24;;;;;;;5.73;2.97;;;;;;;;;;5070583;28;20419;-47
2023/12/07 09:57:54;;;;;;;6.78;2.92;;;;;;;;;;5070753;28;20448;-48
2023/12/07 10:00:21;;;;;;;6.38;3.30;;;;;;;;;;5070421;28;20470;-48
2023/12/07 10:02:48;;;;;;;6.28;3.25;;;;;;;;;;5064534;28;20395;-47
2023/12/07 10:05:19;;;;;;;5.90;3.17;;;;;;;;;;5069447;28;20396;-47
2023/12/07 10:07:50;;;;;;;5.60;2.97;;;;;;;;;;5070370;28;20915;-47
2023/12/07 10:10:18;;;;;;;5.93;3.22;;;;;;;;;;5070288;28;20404;-47
2023/12/07 10:12:49;;;;;;;5.40;3.40;;;;;;;;;;5070560;28;20802;-48
2023/12/07 10:15:17;;;;;;;5.72;3.00;;;;;;;;;;5070354;28;20422;-47
2023/12/07 10:17:48;;;;;;;6.88;3.08;;;;;;;;;;5070477;28;20410;-46
2023/12/07 10:20:16;;;;;;;8.68;3.03;;;;;;;;;;5070312;28;20414;-46
2023/12/07 10:22:43;;;;;;;7.68;2.80;;;;;;;;;;5070159;28;20482;-41
2023/12/07 10:25:11;;;;;;;10.27;2.90;;;;;;;;;;5068821;28;20387;-41
2023/12/07 10:27:40;;;;;;;7.90;3.15;;;;;;;;;;5068216;28;20415;-43
2023/12/07 10:30:10;;;;;;;6.10;3.05;;;;;;;;;;5069043;28;20427;-40
2023/12/07 10:32:38;;;;;;;7.00;2.83;;;;;;;;;;5069026;28;20884;-41
2023/12/07 10:35:09;;;;;;;8.77;2.90;;;;;;;;;;5069134;28;20935;-44
2023/12/07 10:37:37;;;;;;;6.57;2.60;;;;;;;;;;5069163;28;20402;-40
2023/12/07 10:40:05;;;;;;;6.88;2.65;;;;;;;;;;5070174;28;20380;-43
2023/12/07 10:42:35;;;;;;;5.97;2.60;;;;;;;;;;5070038;28;20384;-42
2023/12/07 10:45:05;;;;;;;7.22;3.00;;;;;;;;;;5068639;28;20403;-40
2023/12/07 10:47:37;;;;;;;7.82;2.75;;;;;;;;;;5070271;28;20470;-40
2023/12/07 10:50:10;;;;;;;7.07;2.80;;;;;;;;;;5070184;28;20371;-40
2023/12/07 10:52:38;;;;;;;7.18;2.80;;;;;;;;;;5070012;28;20479;-40
2023/12/07 10:55:08;;;;;;;6.82;2.80;;;;;;;;;;5069965;28;20426;-41
2023/12/07 10:57:37;;;;;;;8.32;2.58;;;;;;;;;;5069975;28;20384;-40
2023/12/07 11:00:04;;;;;;;7.13;2.55;;;;;;;;;;5069847;28;20399;-40
2023/12/07 11:02:33;;;;;;;4.43;2.30;;;;;;;;;;5070294;28;20768;-41
2023/12/07 11:05:00;;;;;;;5.47;2.05;;;;;;;;;;5069913;28;20391;-40
2023/12/07 11:07:31;;;;;;;6.03;2.10;;;;;;;;;;5070027;28;21016;-40
2023/12/07 11:10:01;;;;;;;5.03;2.00;;;;;;;;;;5069413;28;20430;-40
2023/12/07 11:12:48;;;;;;;5.10;2.03;;;;;;;;;;5069209;28;20399;-42
2023/12/07 11:15:16;;;;;;;5.53;2.00;;;;;;;;;;5026661;28;20762;-42
2023/12/07 11:17:52;;;;;;;7.25;2.15;;;;;;;;;;5069081;28;20885;-41
2023/12/07 11:20:20;;;;;;;5.50;2.00;;;;;;;;;;5068276;28;20396;-41
2023/12/07 11:22:48;;;;;;;13.35;2.50;;;;;;;;;;5069468;28;20433;-40
2023/12/07 11:25:16;;;;;;;38.33;5.93;;;;;;;;;;5051647;28;20812;-38
2023/12/07 11:27:47;;;;;;;63.42;13.68;;;;;;;;;;5069488;28;20465;-39
2023/12/07 11:30:15;;;;;;;143.63;13.55;;;;;;;;;;5062498;28;20409;-44
2023/12/07 11:32:42;;;;;;;67.53;9.52;;;;;;;;;;5069687;28;20399;-46
2023/12/07 11:35:13;;;;;;;157.55;28.70;;;;;;;;;;5072540;28;20403;-40
2023/12/07 11:37:58;;;;;;;73.03;13.20;;;;;;;;;;5071107;28;20479;-39
2023/12/07 11:40:25;;;;;;;46.58;9.10;;;;;;;;;;5054196;28;20449;-39
2023/12/07 11:42:53;;;;;;;34.53;7.57;;;;;;;;;;5072894;28;20431;-40
2023/12/07 11:45:39;;;;;;;23.05;4.65;;;;;;;;;;5072764;28;20395;-41
2023/12/07 11:48:11;;;;;;;16.25;3.80;;;;;;;;;;5070993;28;20446;-39
2023/12/07 11:50:56;;;;;;;19.42;3.70;;;;;;;;;;5071786;28;20453;-41
2023/12/07 11:53:24;;;;;;;16.13;3.35;;;;;;;;;;5070779;28;20415;-42
2023/12/07 11:55:51;;;;;;;11.45;2.15;;;;;;;;;;5071186;28;20772;-41
2023/12/07 11:58:18;;;;;;;12.02;2.30;;;;;;;;;;5070984;28;20412;-42
2023/12/07 12:00:48;;;;;;;23.20;2.45;;;;;;;;;;5071590;28;20426;-45
2023/12/07 12:03:15;;;;;;;18.47;2.37;;;;;;;;;;5072858;28;20384;-45
2023/12/07 12:05:43;;;;;;;9.20;1.67;;;;;;;;;;5072354;28;20877;-45
2023/12/07 12:08:11;;;;;;;5.15;1.50;;;;;;;;;;5072683;28;20873;-45
2023/12/07 12:10:38;;;;;;;8.55;1.30;;;;;;;;;;5072239;28;20396;-45
2023/12/07 12:13:06;;;;;;;4.13;0.80;;;;;;;;;;5072719;28;20720;-45
2023/12/07 12:15:33;;;;;;;9.17;1.30;;;;;;;;;;5071989;28;20857;-43
2023/12/07 12:18:01;;;;;;;5.57;1.30;;;;;;;;;;5072659;28;20730;-43
2023/12/07 12:20:28;;;;;;;7.70;1.20;;;;;;;;;;5072475;28;20384;-43
2023/12/07 12:22:55;;;;;;;4.33;0.93;;;;;;;;;;5072315;28;20392;-43
2023/12/07 12:25:25;;;;;;;2.97;0.82;;;;;;;;;;5071943;28;20395;-45
2023/12/07 12:27:54;;;;;;;4.35;0.80;;;;;;;;;;5071978;28;20897;-45
2023/12/07 12:30:25;;;;;;;4.03;0.73;;;;;;;;;;5072306;28;20505;-45
2023/12/07 12:32:52;;;;;;;4.20;0.80;;;;;;;;;;5072116;28;20384;-46
2023/12/07 12:35:19;;;;;;;5.07;1.20;;;;;;;;;;5071162;28;20424;-42
2023/12/07 12:37:46;;;;;;;3.38;0.80;;;;;;;;;;5066006;28;20446;-42
2023/12/07 12:40:20;;;;;;;5.55;1.00;;;;;;;;;;5071613;28;20399;-42
2023/12/07 12:42:48;;;;;;;6.13;1.07;;;;;;;;;;5070874;28;20483;-43
2023/12/07 12:45:16;;;;;;;2.90;0.85;;;;;;;;;;5071112;28;20437;-42
2023/12/07 12:47:43;;;;;;;4.60;1.30;;;;;;;;;;5071532;28;20396;-42
2023/12/07 12:50:11;;;;;;;4.28;1.38;;;;;;;;;;5071422;28;20398;-41
2023/12/07 12:52:40;;;;;;;3.05;1.20;;;;;;;;;;5071828;28;20975;-40
2023/12/07 12:55:13;;;;;;;4.82;1.25;;;;;;;;;;5069409;28;20419;-42
2023/12/07 12:57:40;;;;;;;3.65;0.90;;;;;;;;;;5071356;28;20403;-42
2023/12/07 13:00:07;;;;;;;3.83;0.90;;;;;;;;;;5070745;28;20392;-41
2023/12/07 13:02:35;;;;;;;2.77;0.73;;;;;;;;;;5070922;28;20889;-42
2023/12/07 13:05:02;;;;;;;2.50;0.82;;;;;;;;;;5069328;28;20718;-42
2023/12/07 13:07:29;;;;;;;2.53;0.85;;;;;;;;;;5071144;28;20457;-41
2023/12/07 13:09:56;;;;;;;3.33;1.00;;;;;;;;;;5071415;28;20887;-41
2023/12/07 13:12:23;;;;;;;6.03;0.90;;;;;;;;;;5071492;28;20391;-41
2023/12/07 13:14:50;;;;;;;2.58;1.20;;;;;;;;;;5071264;28;20399;-41
2023/12/07 13:17:17;;;;;;;3.13;1.00;;;;;;;;;;5071354;28;20395;-40
2023/12/07 13:19:44;;;;;;;7.47;1.10;;;;;;;;;;5077751;28;20398;-41
2023/12/07 13:22:11;;;;;;;4.45;1.15;;;;;;;;;;5080182;28;20390;-40
2023/12/07 13:24:38;;;;;;;4.00;1.00;;;;;;;;;;5081734;28;20397;-40
2023/12/07 13:27:05;;;;;;;2.10;1.00;;;;;;;;;;5076271;28;20403;-40
2023/12/07 13:29:32;;;;;;;3.33;0.90;;;;;;;;;;5075309;28;20389;-41
2023/12/07 13:31:59;;;;;;;2.22;0.90;;;;;;;;;;5082906;28;20438;-41
2023/12/07 13:34:26;;;;;;;2.37;0.70;;;;;;;;;;5080112;28;20429;-40
2023/12/07 13:36:53;;;;;;;1.98;0.90;;;;;;;;;;5080392;28;21183;-40
2023/12/07 13:39:23;;;;;;;1.27;0.60;;;;;;;;;;5079797;28;20397;-41
2023/12/07 13:41:51;;;;;;;2.60;0.57;;;;;;;;;;5081274;28;20394;-40
2023/12/07 13:44:18;;;;;;;4.43;0.60;;;;;;;;;;5081059;28;20403;-41
2023/12/07 13:46:45;;;;;;;2.80;0.50;;;;;;;;;;5079300;28;20395;-40
2023/12/07 13:49:14;;;;;;;3.33;0.73;;;;;;;;;;5080568;28;20440;-41
2023/12/07 13:51:41;;;;;;;3.63;0.65;;;;;;;;;;5082014;28;20953;-40
2023/12/07 13:54:08;;;;;;;3.00;0.80;;;;;;;;;;5075896;28;20404;-42
2023/12/07 13:56:36;;;;;;;5.73;1.03;;;;;;;;;;5052332;28;20948;-41
2023/12/07 13:59:02;;;;;;;5.40;1.00;;;;;;;;;;5070710;28;20463;-41
2023/12/07 14:01:31;;;;;;;7.80;1.00;;;;;;;;;;5080100;28;20863;-41
2023/12/07 14:04:01;;;;;;;4.53;0.80;;;;;;;;;;5081012;28;20911;-40
2023/12/07 14:06:28;;;;;;;2.97;0.50;;;;;;;;;;5079040;28;20391;-41
2023/12/07 14:08:56;;;;;;;3.20;0.50;;;;;;;;;;5080300;28;20873;-39
2023/12/07 14:11:23;;;;;;;4.60;0.82;;;;;;;;;;5080413;28;20548;-40
2023/12/07 14:13:53;;;;;;;5.75;0.90;;;;;;;;;;5079009;28;20486;-40
2023/12/07 14:16:24;;;;;;;5.00;0.82;;;;;;;;;;5057782;28;20415;-39
2023/12/07 14:18:51;;;;;;;3.83;0.60;;;;;;;;;;5053163;28;20455;-40
2023/12/07 14:21:22;;;;;;;5.35;0.70;;;;;;;;;;5053354;28;20400;-40
2023/12/07 14:23:49;;;;;;;4.90;0.80;;;;;;;;;;5054873;28;20442;-41
2023/12/07 14:26:16;;;;;;;7.38;1.00;;;;;;;;;;5073735;28;20494;-40
2023/12/07 14:28:43;;;;;;;6.30;1.08;;;;;;;;;;5072750;28;20410;-40
2023/12/07 14:31:16;;;;;;;8.53;1.13;;;;;;;;;;5073519;28;20435;-39
2023/12/07 14:33:44;;;;;;;11.80;1.05;;;;;;;;;;5072321;28;20402;-40
2023/12/07 14:36:12;;;;;;;10.30;1.10;;;;;;;;;;5073193;28;20419;-40
2023/12/07 14:38:39;;;;;;;9.40;1.10;;;;;;;;;;5073486;28;20404;-39
2023/12/07 14:41:06;;;;;;;9.18;1.10;;;;;;;;;;5072512;28;20973;-40
2023/12/07 14:43:33;;;;;;;6.70;1.00;;;;;;;;;;5083705;28;20427;-40
2023/12/07 14:46:02;;;;;;;12.50;1.33;;;;;;;;;;5085207;28;20392;-42